createdAt,value
2019-02-03T00:00:42.846Z,0
2019-02-03T00:01:42.781Z,0
2019-02-03T00:02:42.518Z,0
2019-02-03T00:03:42.805Z,0
2019-02-03T00:04:42.493Z,0
2019-02-03T00:05:42.230Z,0
2019-02-03T00:06:42.868Z,0
2019-02-03T00:07:43.492Z,0
2019-02-03T00:08:42.430Z,0
2019-02-03T00:09:42.634Z,0
2019-02-03T00:10:42.373Z,0
2019-02-03T00:11:42.606Z,0
2019-02-03T00:12:42.594Z,0
2019-02-03T00:13:42.336Z,0
2019-02-03T00:14:42.313Z,0
2019-02-03T00:15:43.182Z,0
2019-02-03T00:16:42.503Z,0
2019-02-03T00:17:42.241Z,0
2019-02-03T00:18:44.874Z,0
2019-02-03T00:19:42.455Z,0
2019-02-03T00:20:42.524Z,0
2019-02-03T00:21:42.419Z,0
2019-02-03T00:22:42.402Z,0
2019-02-03T00:23:43.082Z,0
2019-02-03T00:24:42.113Z,0
2019-02-03T00:25:42.341Z,0
2019-02-03T00:26:42.314Z,0
2019-02-03T00:27:42.308Z,0
2019-02-03T00:28:42.043Z,0
2019-02-03T00:29:42.267Z,0
2019-02-03T00:30:42.009Z,0
2019-02-03T00:31:42.806Z,0
2019-02-03T00:32:41.967Z,0
2019-02-03T00:33:42.194Z,0
2019-02-03T00:34:41.680Z,0
2019-02-03T00:35:42.160Z,0
2019-02-03T00:36:42.185Z,0
2019-02-03T00:37:42.021Z,0
2019-02-03T00:38:42.350Z,0
2019-02-03T00:39:42.309Z,0
2019-02-03T00:40:42.912Z,0
2019-02-03T00:41:42.268Z,0
2019-02-03T00:42:42.019Z,0
2019-02-03T00:43:42.070Z,0
2019-02-03T00:44:41.997Z,0
2019-02-03T00:45:42.099Z,0
2019-02-03T00:46:41.944Z,0
2019-02-03T00:47:42.006Z,0
2019-02-03T00:48:42.859Z,0
2019-02-03T00:49:41.896Z,0
2019-02-03T00:50:41.626Z,0
2019-02-03T00:51:41.863Z,0
2019-02-03T00:52:41.828Z,0
2019-02-03T00:53:41.814Z,0
2019-02-03T00:54:41.785Z,0
2019-02-03T00:55:41.532Z,0
2019-02-03T00:56:42.252Z,0
2019-02-03T00:57:42.047Z,0
2019-02-03T00:58:41.722Z,0
2019-02-03T00:59:41.468Z,0
2019-02-03T01:00:41.432Z,0
2019-02-03T01:01:41.427Z,0
2019-02-03T01:02:41.549Z,0
2019-02-03T01:03:41.644Z,0
2019-02-03T01:04:42.254Z,0
2019-02-03T01:05:41.588Z,0
2019-02-03T01:06:41.567Z,0
2019-02-03T01:07:41.568Z,0
2019-02-03T01:08:41.536Z,0
2019-02-03T01:09:43.258Z,0
2019-02-03T01:10:41.256Z,0
2019-02-03T01:11:41.540Z,0
2019-02-03T01:12:42.274Z,0
2019-02-03T01:13:41.433Z,0
2019-02-03T01:14:41.424Z,0
2019-02-03T01:15:42.054Z,0
2019-02-03T01:16:41.398Z,0
2019-02-03T01:17:41.359Z,0
2019-02-03T01:18:41.095Z,0
2019-02-03T01:19:41.322Z,0
2019-02-03T01:20:41.830Z,0
2019-02-03T01:21:41.041Z,0
2019-02-03T01:22:41.317Z,0
2019-02-03T01:23:41.254Z,0
2019-02-03T01:24:41.242Z,0
2019-02-03T01:25:41.365Z,0
2019-02-03T01:26:41.193Z,0
2019-02-03T01:27:40.920Z,0
2019-02-03T01:28:41.599Z,0
2019-02-03T01:29:41.564Z,0
2019-02-03T01:30:40.858Z,0
2019-02-03T01:31:41.109Z,0
2019-02-03T01:32:41.076Z,0
2019-02-03T01:33:41.071Z,0
2019-02-03T01:34:41.037Z,0
2019-02-03T01:35:40.826Z,0
2019-02-03T01:36:41.588Z,0
2019-02-03T01:37:49.652Z,0
2019-02-03T01:38:40.956Z,0
2019-02-03T01:39:40.954Z,0
2019-02-03T01:40:40.926Z,0
2019-02-03T01:41:40.902Z,0
2019-02-03T01:42:40.883Z,0
2019-02-03T01:43:40.626Z,0
2019-02-03T01:44:41.328Z,0
2019-02-03T01:45:41.072Z,0
2019-02-03T01:46:40.808Z,0
2019-02-03T01:47:40.901Z,0
2019-02-03T01:48:40.770Z,0
2019-02-03T01:49:40.750Z,0
2019-02-03T01:50:40.726Z,0
2019-02-03T01:51:40.732Z,0
2019-02-03T01:52:41.186Z,0
2019-02-03T01:53:41.089Z,0
2019-02-03T01:54:40.402Z,0
2019-02-03T01:55:40.629Z,0
2019-02-03T01:56:40.605Z,0
2019-02-03T01:57:40.584Z,0
2019-02-03T01:58:40.323Z,0
2019-02-03T01:59:40.560Z,0
2019-02-03T02:00:40.828Z,0
2019-02-03T02:01:40.950Z,0
2019-02-03T02:02:40.484Z,0
2019-02-03T02:03:40.473Z,0
2019-02-03T02:04:40.451Z,0
2019-02-03T02:05:40.210Z,0
2019-02-03T02:06:40.417Z,0
2019-02-03T02:07:50.804Z,0
2019-02-03T02:08:40.351Z,0
2019-02-03T02:09:40.670Z,0
2019-02-03T02:10:40.344Z,0
2019-02-03T02:11:40.090Z,0
2019-02-03T02:12:40.060Z,0
2019-02-03T02:13:40.340Z,0
2019-02-03T02:14:40.263Z,0
2019-02-03T02:15:40.247Z,0
2019-02-03T02:16:40.480Z,0
2019-02-03T02:17:40.579Z,0
2019-02-03T02:18:40.189Z,0
2019-02-03T02:19:39.667Z,0
2019-02-03T02:20:40.155Z,0
2019-02-03T02:21:40.131Z,0
2019-02-03T02:22:40.121Z,0
2019-02-03T02:23:40.154Z,0
2019-02-03T02:24:40.378Z,0
2019-02-03T02:25:40.635Z,0
2019-02-03T02:26:39.779Z,0
2019-02-03T02:27:39.767Z,0
2019-02-03T02:28:39.737Z,0
2019-02-03T02:29:39.975Z,0
2019-02-03T02:30:39.977Z,0
2019-02-03T02:31:39.706Z,0
2019-02-03T02:32:40.047Z,0
2019-02-03T02:33:40.611Z,0
2019-02-03T02:34:39.884Z,0
2019-02-03T02:35:39.891Z,0
2019-02-03T02:36:39.602Z,0
2019-02-03T02:37:39.584Z,0
2019-02-03T02:38:39.819Z,0
2019-02-03T02:39:42.499Z,0
2019-02-03T02:40:40.057Z,0
2019-02-03T02:41:40.164Z,0
2019-02-03T02:42:39.733Z,0
2019-02-03T02:43:39.859Z,0
2019-02-03T02:44:39.703Z,0
2019-02-03T02:45:39.677Z,0
2019-02-03T02:46:39.405Z,0
2019-02-03T02:47:39.634Z,0
2019-02-03T02:48:39.839Z,0
2019-02-03T02:49:40.059Z,0
2019-02-03T02:50:39.352Z,0
2019-02-03T02:51:39.550Z,0
2019-02-03T02:52:39.033Z,0
2019-02-03T02:53:39.268Z,0
2019-02-03T02:54:39.492Z,0
2019-02-03T02:55:39.260Z,0
2019-02-03T02:56:39.441Z,0
2019-02-03T02:57:40.015Z,0
2019-02-03T02:58:39.199Z,0
2019-02-03T02:59:39.404Z,0
2019-02-03T03:00:39.390Z,0
2019-02-03T03:01:39.128Z,0
2019-02-03T03:02:39.113Z,0
2019-02-03T03:03:39.307Z,0
2019-02-03T03:04:39.551Z,0
2019-02-03T03:05:39.625Z,0
2019-02-03T03:06:39.382Z,0
2019-02-03T03:07:39.236Z,0
2019-02-03T03:08:39.241Z,0
2019-02-03T03:09:39.191Z,0
2019-02-03T03:10:38.970Z,0
2019-02-03T03:11:38.919Z,0
2019-02-03T03:12:39.011Z,0
2019-02-03T03:13:39.882Z,0
2019-02-03T03:14:39.109Z,0
2019-02-03T03:15:38.851Z,0
2019-02-03T03:16:38.824Z,0
2019-02-03T03:17:38.798Z,0
2019-02-03T03:18:39.119Z,0
2019-02-03T03:19:38.763Z,0
2019-02-03T03:20:38.998Z,0
2019-02-03T03:21:39.471Z,0
2019-02-03T03:22:38.460Z,0
2019-02-03T03:23:38.933Z,0
2019-02-03T03:24:38.903Z,0
2019-02-03T03:25:38.890Z,0
2019-02-03T03:26:38.860Z,0
2019-02-03T03:27:38.974Z,0
2019-02-03T03:28:38.918Z,0
2019-02-03T03:29:41.301Z,0
2019-02-03T03:30:38.794Z,0
2019-02-03T03:31:38.546Z,0
2019-02-03T03:32:38.776Z,0
2019-02-03T03:33:38.506Z,0
2019-02-03T03:34:38.703Z,0
2019-02-03T03:35:41.376Z,0
2019-02-03T03:36:38.672Z,0
2019-02-03T03:37:39.542Z,0
2019-02-03T03:38:42.327Z,0
2019-02-03T03:39:38.695Z,0
2019-02-03T03:40:38.578Z,0
2019-02-03T03:41:38.563Z,0
2019-02-03T03:42:38.543Z,0
2019-02-03T03:43:38.288Z,0
2019-02-03T03:44:38.304Z,0
2019-02-03T03:45:39.295Z,0
2019-02-03T03:46:38.482Z,0
2019-02-03T03:47:37.966Z,0
2019-02-03T03:48:38.575Z,0
2019-02-03T03:49:38.165Z,0
2019-02-03T03:50:38.161Z,0
2019-02-03T03:51:38.373Z,0
2019-02-03T03:52:41.933Z,0
2019-02-03T03:53:38.838Z,0
2019-02-03T03:54:38.519Z,0
2019-02-03T03:55:38.302Z,0
2019-02-03T03:56:38.276Z,0
2019-02-03T03:57:38.263Z,0
2019-02-03T03:58:38.406Z,0
2019-02-03T03:59:38.220Z,0
2019-02-03T04:00:37.951Z,0
2019-02-03T04:01:38.657Z,0
2019-02-03T04:02:38.327Z,0
2019-02-03T04:03:37.977Z,0
2019-02-03T04:04:37.867Z,0
2019-02-03T04:05:38.131Z,0
2019-02-03T04:06:38.073Z,0
2019-02-03T04:07:37.823Z,0
2019-02-03T04:08:51.911Z,0
2019-02-03T04:09:38.425Z,0
2019-02-03T04:10:38.401Z,0
2019-02-03T04:11:37.976Z,0
2019-02-03T04:12:37.955Z,0
2019-02-03T04:13:37.718Z,0
2019-02-03T04:14:37.923Z,0
2019-02-03T04:15:37.916Z,0
2019-02-03T04:16:37.870Z,0
2019-02-03T04:17:38.117Z,0
2019-02-03T04:18:38.170Z,0
2019-02-03T04:19:37.613Z,0
2019-02-03T04:20:37.547Z,0
2019-02-03T04:21:37.538Z,0
2019-02-03T04:22:37.760Z,0
2019-02-03T04:23:37.739Z,0
2019-02-03T04:24:37.707Z,0
2019-02-03T04:25:38.273Z,0
2019-02-03T04:26:37.900Z,0
2019-02-03T04:27:36.913Z,0
2019-02-03T04:28:37.390Z,0
2019-02-03T04:29:37.739Z,0
2019-02-03T04:30:37.585Z,0
2019-02-03T04:31:37.566Z,0
2019-02-03T04:32:37.556Z,0
2019-02-03T04:33:37.809Z,0
2019-02-03T04:34:40.071Z,0
2019-02-03T04:35:37.291Z,0
2019-02-03T04:36:37.471Z,0
2019-02-03T04:37:37.454Z,0
2019-02-03T04:38:37.441Z,0
2019-02-03T04:39:37.165Z,0
2019-02-03T04:40:37.398Z,0
2019-02-03T04:41:37.690Z,0
2019-02-03T04:42:37.997Z,0
2019-02-03T04:43:37.091Z,0
2019-02-03T04:44:38.104Z,0
2019-02-03T04:45:37.305Z,0
2019-02-03T04:46:37.274Z,0
2019-02-03T04:47:36.996Z,0
2019-02-03T04:48:37.242Z,0
2019-02-03T04:49:37.464Z,0
2019-02-03T04:50:40.267Z,0
2019-02-03T04:51:37.180Z,0
2019-02-03T04:52:37.154Z,0
2019-02-03T04:53:36.901Z,0
2019-02-03T04:54:37.122Z,0
2019-02-03T04:55:37.098Z,0
2019-02-03T04:56:37.079Z,0
2019-02-03T04:57:37.188Z,0
2019-02-03T04:58:37.670Z,0
2019-02-03T04:59:37.036Z,0
2019-02-03T05:00:36.851Z,0
2019-02-03T05:01:36.724Z,0
2019-02-03T05:02:36.968Z,0
2019-02-03T05:03:36.954Z,0
2019-02-03T05:04:36.665Z,0
2019-02-03T05:05:37.071Z,0
2019-02-03T05:06:37.577Z,0
2019-02-03T05:07:36.856Z,0
2019-02-03T05:08:36.830Z,0
2019-02-03T05:09:36.798Z,0
2019-02-03T05:10:36.805Z,0
2019-02-03T05:11:36.768Z,0
2019-02-03T05:12:36.530Z,0
2019-02-03T05:13:37.244Z,0
2019-02-03T05:14:37.071Z,0
2019-02-03T05:15:36.692Z,0
2019-02-03T05:16:36.666Z,0
2019-02-03T05:17:36.407Z,0
2019-02-03T05:18:36.140Z,0
2019-02-03T05:19:36.609Z,0
2019-02-03T05:20:36.683Z,0
2019-02-03T05:21:36.797Z,0
2019-02-03T05:22:36.847Z,0
2019-02-03T05:23:36.529Z,0
2019-02-03T05:24:36.509Z,0
2019-02-03T05:25:36.490Z,0
2019-02-03T05:26:36.309Z,0
2019-02-03T05:27:36.187Z,0
2019-02-03T05:28:36.310Z,0
2019-02-03T05:29:36.401Z,0
2019-02-03T05:30:36.794Z,0
2019-02-03T05:31:36.371Z,0
2019-02-03T05:32:36.342Z,0
2019-02-03T05:33:36.083Z,0
2019-02-03T05:34:36.088Z,0
2019-02-03T05:35:36.310Z,0
2019-02-03T05:36:36.276Z,0
2019-02-03T05:37:36.234Z,0
2019-02-03T05:38:36.841Z,0
2019-02-03T05:39:36.214Z,0
2019-02-03T05:40:36.180Z,0
2019-02-03T05:41:36.153Z,0
2019-02-03T05:42:36.132Z,0
2019-02-03T05:43:36.129Z,0
2019-02-03T05:44:36.087Z,0
2019-02-03T05:45:36.316Z,0
2019-02-03T05:46:36.761Z,0
2019-02-03T05:47:36.046Z,0
2019-02-03T05:48:36.009Z,0
2019-02-03T05:49:35.749Z,0
2019-02-03T05:50:35.988Z,0
2019-02-03T05:51:36.075Z,0
2019-02-03T05:52:35.682Z,0
2019-02-03T05:53:36.083Z,0
2019-02-03T05:54:36.090Z,0
2019-02-03T05:55:35.872Z,0
2019-02-03T05:56:35.883Z,0
2019-02-03T05:57:35.831Z,0
2019-02-03T05:58:35.823Z,0
2019-02-03T05:59:35.779Z,0
2019-02-03T06:00:35.783Z,0
2019-02-03T06:01:35.987Z,0
2019-02-03T06:02:36.502Z,0
2019-02-03T06:03:35.729Z,0
2019-02-03T06:04:35.683Z,0
2019-02-03T06:05:35.673Z,0
2019-02-03T06:06:35.656Z,0
2019-02-03T06:07:35.658Z,0
2019-02-03T06:08:35.693Z,0
2019-02-03T06:09:45.804Z,0
2019-02-03T06:10:36.266Z,0
2019-02-03T06:11:35.544Z,0
2019-02-03T06:12:35.524Z,0
2019-02-03T06:13:35.584Z,0
2019-02-03T06:14:35.265Z,0
2019-02-03T06:15:35.478Z,0
2019-02-03T06:16:35.470Z,0
2019-02-03T06:17:35.683Z,0
2019-02-03T06:18:35.991Z,0
2019-02-03T06:19:35.404Z,0
2019-02-03T06:20:35.120Z,0
2019-02-03T06:21:35.108Z,0
2019-02-03T06:22:35.095Z,0
2019-02-03T06:23:35.319Z,0
2019-02-03T06:24:35.287Z,0
2019-02-03T06:25:35.289Z,0
2019-02-03T06:26:35.916Z,0
2019-02-03T06:27:35.243Z,0
2019-02-03T06:28:35.207Z,0
2019-02-03T06:29:34.961Z,0
2019-02-03T06:30:34.915Z,0
2019-02-03T06:31:35.144Z,0
2019-02-03T06:32:35.136Z,0
2019-02-03T06:33:35.104Z,0
2019-02-03T06:34:35.744Z,0
2019-02-03T06:35:34.569Z,0
2019-02-03T06:36:35.055Z,0
2019-02-03T06:37:35.043Z,0
2019-02-03T06:38:35.005Z,0
2019-02-03T06:39:35.002Z,0
2019-02-03T06:40:34.961Z,0
2019-02-03T06:41:34.942Z,0
2019-02-03T06:42:35.522Z,0
2019-02-03T06:43:34.892Z,0
2019-02-03T06:44:34.903Z,0
2019-02-03T06:45:34.864Z,0
2019-02-03T06:46:34.340Z,0
2019-02-03T06:47:34.817Z,0
2019-02-03T06:48:34.796Z,0
2019-02-03T06:49:34.781Z,0
2019-02-03T06:50:35.133Z,0
2019-02-03T06:51:34.797Z,0
2019-02-03T06:52:34.704Z,0
2019-02-03T06:53:34.696Z,0
2019-02-03T06:54:34.558Z,0
2019-02-03T06:55:34.650Z,0
2019-02-03T06:56:34.398Z,0
2019-02-03T06:57:34.601Z,0
2019-02-03T06:58:34.927Z,0
2019-02-03T06:59:34.661Z,5
2019-02-03T07:00:34.554Z,5
2019-02-03T07:01:34.541Z,5
2019-02-03T07:02:34.515Z,5
2019-02-03T07:03:34.502Z,5
2019-02-03T07:04:34.252Z,5
2019-02-03T07:05:34.464Z,5
2019-02-03T07:06:35.064Z,5
2019-02-03T07:07:34.449Z,5
2019-02-03T07:08:34.389Z,5
2019-02-03T07:09:36.867Z,5
2019-02-03T07:10:34.369Z,5
2019-02-03T07:11:34.084Z,5
2019-02-03T07:12:34.353Z,10
2019-02-03T07:13:34.279Z,10
2019-02-03T07:14:34.989Z,10
2019-02-03T07:15:36.580Z,10
2019-02-03T07:16:47.307Z,10
2019-02-03T07:17:34.286Z,10
2019-02-03T07:18:34.186Z,10
2019-02-03T07:19:34.168Z,10
2019-02-03T07:20:33.900Z,10
2019-02-03T07:21:33.869Z,10
2019-02-03T07:22:34.059Z,10
2019-02-03T07:23:34.354Z,10
2019-02-03T07:24:34.061Z,10
2019-02-03T07:25:34.042Z,10
2019-02-03T07:26:34.040Z,10
2019-02-03T07:27:33.758Z,10
2019-02-03T07:28:33.990Z,10
2019-02-03T07:29:33.972Z,10
2019-02-03T07:30:34.089Z,10
2019-02-03T07:31:34.342Z,10
2019-02-03T07:32:33.899Z,10
2019-02-03T07:33:33.898Z,10
2019-02-03T07:34:33.878Z,10
2019-02-03T07:35:33.858Z,10
2019-02-03T07:36:33.564Z,10
2019-02-03T07:37:33.813Z,10
2019-02-03T07:38:34.189Z,15
2019-02-03T07:39:34.199Z,15
2019-02-03T07:40:33.503Z,15
2019-02-03T07:41:33.719Z,15
2019-02-03T07:42:33.694Z,15
2019-02-03T07:43:33.676Z,15
2019-02-03T07:44:33.412Z,15
2019-02-03T07:45:33.799Z,15
2019-02-03T07:46:34.077Z,15
2019-02-03T07:47:33.756Z,15
2019-02-03T07:48:33.336Z,15
2019-02-03T07:49:33.566Z,15
2019-02-03T07:50:33.538Z,15
2019-02-03T07:51:33.666Z,15
2019-02-03T07:52:33.695Z,15
2019-02-03T07:53:33.233Z,15
2019-02-03T07:54:33.566Z,15
2019-02-03T07:55:33.758Z,15
2019-02-03T07:56:33.423Z,15
2019-02-03T07:57:33.156Z,15
2019-02-03T07:58:33.388Z,20
2019-02-03T07:59:33.371Z,20
2019-02-03T08:00:33.342Z,20
2019-02-03T08:01:33.334Z,20
2019-02-03T08:02:33.802Z,20
2019-02-03T08:03:35.518Z,20
2019-02-03T08:04:33.268Z,20
2019-02-03T08:05:32.981Z,25
2019-02-03T08:06:33.216Z,25
2019-02-03T08:07:33.198Z,25
2019-02-03T08:08:33.185Z,25
2019-02-03T08:09:33.155Z,25
2019-02-03T08:10:38.861Z,25
2019-02-03T08:11:33.112Z,25
2019-02-03T08:12:33.088Z,25
2019-02-03T08:13:33.096Z,25
2019-02-03T08:14:32.805Z,25
2019-02-03T08:15:33.039Z,30
2019-02-03T08:16:33.003Z,25
2019-02-03T08:17:32.751Z,25
2019-02-03T08:18:33.333Z,25
2019-02-03T08:19:32.969Z,25
2019-02-03T08:20:32.942Z,25
2019-02-03T08:21:32.437Z,25
2019-02-03T08:22:32.892Z,25
2019-02-03T08:23:33.033Z,25
2019-02-03T08:24:32.605Z,25
2019-02-03T08:25:32.836Z,25
2019-02-03T08:26:33.171Z,25
2019-02-03T08:27:32.791Z,25
2019-02-03T08:28:32.766Z,25
2019-02-03T08:29:32.763Z,25
2019-02-03T08:30:32.872Z,25
2019-02-03T08:31:32.731Z,25
2019-02-03T08:32:32.690Z,30
2019-02-03T08:33:32.721Z,30
2019-02-03T08:34:34.003Z,35
2019-02-03T08:35:32.631Z,35
2019-02-03T08:36:32.616Z,35
2019-02-03T08:37:32.588Z,35
2019-02-03T08:38:32.671Z,40
2019-02-03T08:39:32.550Z,40
2019-02-03T08:40:43.967Z,45
2019-02-03T08:41:32.514Z,45
2019-02-03T08:42:35.071Z,50
2019-02-03T08:43:32.471Z,55
2019-02-03T08:44:32.268Z,55
2019-02-03T08:45:32.447Z,60
2019-02-03T08:46:32.416Z,65
2019-02-03T08:47:32.106Z,70
2019-02-03T08:48:32.124Z,70
2019-02-03T08:49:32.579Z,70
2019-02-03T08:50:33.170Z,75
2019-02-03T08:51:34.884Z,75
2019-02-03T08:52:32.312Z,75
2019-02-03T08:53:32.279Z,80
2019-02-03T08:54:32.003Z,80
2019-02-03T08:55:32.223Z,80
2019-02-03T08:56:31.960Z,85
2019-02-03T08:57:33.359Z,85
2019-02-03T08:58:32.484Z,90
2019-02-03T08:59:32.158Z,90
2019-02-03T09:00:32.145Z,85
2019-02-03T09:01:32.110Z,90
2019-02-03T09:02:32.093Z,90
2019-02-03T09:03:34.232Z,90
2019-02-03T09:04:32.061Z,85
2019-02-03T09:05:32.046Z,85
2019-02-03T09:06:32.285Z,80
2019-02-03T09:07:31.491Z,75
2019-02-03T09:08:31.966Z,90
2019-02-03T09:09:31.952Z,90
2019-02-03T09:10:31.691Z,85
2019-02-03T09:11:31.667Z,90
2019-02-03T09:12:31.906Z,100
2019-02-03T09:13:31.866Z,95
2019-02-03T09:14:32.301Z,105
2019-02-03T09:15:31.597Z,105
2019-02-03T09:16:31.807Z,105
2019-02-03T09:17:31.800Z,105
2019-02-03T09:18:31.534Z,105
2019-02-03T09:19:31.746Z,105
2019-02-03T09:20:31.751Z,105
2019-02-03T09:21:31.703Z,105
2019-02-03T09:22:32.365Z,105
2019-02-03T09:23:31.675Z,110
2019-02-03T09:24:31.657Z,105
2019-02-03T09:25:31.394Z,100
2019-02-03T09:26:31.614Z,100
2019-02-03T09:27:31.613Z,110
2019-02-03T09:28:31.330Z,105
2019-02-03T09:29:31.540Z,100
2019-02-03T09:30:32.105Z,100
2019-02-03T09:31:31.511Z,100
2019-02-03T09:32:31.489Z,105
2019-02-03T09:33:31.210Z,95
2019-02-03T09:34:31.460Z,90
2019-02-03T09:35:31.433Z,90
2019-02-03T09:36:31.406Z,90
2019-02-03T09:37:34.461Z,100
2019-02-03T09:38:31.896Z,100
2019-02-03T09:39:31.110Z,100
2019-02-03T09:40:31.370Z,105
2019-02-03T09:41:31.304Z,110
2019-02-03T09:42:31.294Z,110
2019-02-03T09:43:31.087Z,110
2019-02-03T09:44:30.995Z,100
2019-02-03T09:45:31.499Z,100
2019-02-03T09:46:31.660Z,100
2019-02-03T09:47:30.936Z,110
2019-02-03T09:48:31.176Z,105
2019-02-03T09:49:31.201Z,105
2019-02-03T09:50:30.892Z,110
2019-02-03T09:51:31.114Z,110
2019-02-03T09:52:31.093Z,110
2019-02-03T09:53:31.329Z,120
2019-02-03T09:54:31.617Z,115
2019-02-03T09:55:31.047Z,120
2019-02-03T09:56:31.018Z,115
2019-02-03T09:57:31.070Z,115
2019-02-03T09:58:31.191Z,110
2019-02-03T09:59:30.709Z,110
2019-02-03T10:00:30.686Z,120
2019-02-03T10:01:31.111Z,115
2019-02-03T10:02:31.582Z,115
2019-02-03T10:03:30.878Z,110
2019-02-03T10:04:30.881Z,110
2019-02-03T10:05:30.582Z,115
2019-02-03T10:06:30.862Z,115
2019-02-03T10:07:30.779Z,115
2019-02-03T10:08:42.758Z,115
2019-02-03T10:09:30.957Z,105
2019-02-03T10:10:31.157Z,115
2019-02-03T10:11:32.604Z,110
2019-02-03T10:12:30.445Z,115
2019-02-03T10:13:30.663Z,110
2019-02-03T10:14:30.399Z,110
2019-02-03T10:15:30.128Z,120
2019-02-03T10:16:30.358Z,120
2019-02-03T10:17:30.958Z,125
2019-02-03T10:18:31.216Z,120
2019-02-03T10:19:30.671Z,115
2019-02-03T10:20:30.530Z,120
2019-02-03T10:21:30.259Z,130
2019-02-03T10:22:30.497Z,125
2019-02-03T10:23:30.532Z,130
2019-02-03T10:24:41.653Z,125
2019-02-03T10:25:30.484Z,125
2019-02-03T10:26:30.675Z,130
2019-02-03T10:27:30.390Z,130
2019-02-03T10:28:30.377Z,135
2019-02-03T10:29:30.386Z,135
2019-02-03T10:30:30.322Z,130
2019-02-03T10:31:30.300Z,130
2019-02-03T10:32:32.781Z,135
2019-02-03T10:33:30.595Z,140
2019-02-03T10:34:32.212Z,130
2019-02-03T10:35:32.968Z,135
2019-02-03T10:36:31.211Z,135
2019-02-03T10:38:01.790Z,130
2019-02-03T10:38:30.179Z,135
2019-02-03T10:39:32.908Z,145
2019-02-03T10:40:30.140Z,140
2019-02-03T10:41:33.180Z,135
2019-02-03T10:42:30.787Z,145
2019-02-03T10:43:30.060Z,140
2019-02-03T10:44:30.113Z,140
2019-02-03T10:45:29.792Z,135
2019-02-03T10:46:30.013Z,135
2019-02-03T10:47:29.993Z,140
2019-02-03T10:48:29.975Z,140
2019-02-03T10:49:30.159Z,155
2019-02-03T10:50:29.958Z,160
2019-02-03T10:51:29.932Z,165
2019-02-03T10:52:29.635Z,165
2019-02-03T10:53:29.893Z,155
2019-02-03T10:54:29.848Z,160
2019-02-03T10:55:29.843Z,155
2019-02-03T10:56:29.825Z,155
2019-02-03T10:57:30.498Z,150
2019-02-03T10:58:29.811Z,150
2019-02-03T10:59:29.832Z,160
2019-02-03T11:00:29.530Z,160
2019-02-03T11:01:29.742Z,155
2019-02-03T11:02:29.467Z,155
2019-02-03T11:03:29.704Z,155
2019-02-03T11:04:29.794Z,145
2019-02-03T11:05:30.104Z,155
2019-02-03T11:06:29.627Z,155
2019-02-03T11:07:29.617Z,160
2019-02-03T11:08:29.596Z,155
2019-02-03T11:09:29.332Z,150
2019-02-03T11:10:29.559Z,155
2019-02-03T11:11:40.926Z,150
2019-02-03T11:12:30.022Z,150
2019-02-03T11:13:29.608Z,150
2019-02-03T11:14:29.525Z,155
2019-02-03T11:15:29.473Z,150
2019-02-03T11:16:28.960Z,155
2019-02-03T11:17:29.548Z,150
2019-02-03T11:18:29.433Z,140
2019-02-03T11:19:29.201Z,150
2019-02-03T11:20:30.389Z,150
2019-02-03T11:21:29.355Z,155
2019-02-03T11:22:29.425Z,150
2019-02-03T11:23:29.321Z,155
2019-02-03T11:24:29.123Z,150
2019-02-03T11:25:29.292Z,155
2019-02-03T11:26:29.271Z,150
2019-02-03T11:27:29.589Z,150
2019-02-03T11:28:29.472Z,150
2019-02-03T11:29:28.964Z,150
2019-02-03T11:30:29.328Z,155
2019-02-03T11:31:29.148Z,160
2019-02-03T11:32:29.144Z,160
2019-02-03T11:33:28.893Z,160
2019-02-03T11:34:29.101Z,160
2019-02-03T11:35:29.947Z,160
2019-02-03T11:36:29.240Z,160
2019-02-03T11:37:30.227Z,155
2019-02-03T11:38:29.035Z,155
2019-02-03T11:39:29.050Z,160
2019-02-03T11:40:29.029Z,160
2019-02-03T11:41:29.090Z,150
2019-02-03T11:42:29.380Z,155
2019-02-03T11:43:29.057Z,155
2019-02-03T11:44:28.897Z,160
2019-02-03T11:45:28.869Z,150
2019-02-03T11:46:28.913Z,155
2019-02-03T11:47:28.833Z,150
2019-02-03T11:48:28.808Z,150
2019-02-03T11:49:28.546Z,150
2019-02-03T11:50:29.353Z,145
2019-02-03T11:51:29.119Z,145
2019-02-03T11:52:28.741Z,145
2019-02-03T11:53:28.453Z,140
2019-02-03T11:54:28.444Z,145
2019-02-03T11:55:28.667Z,140
2019-02-03T11:56:28.412Z,130
2019-02-03T11:57:28.397Z,140
2019-02-03T11:58:29.173Z,135
2019-02-03T11:59:28.345Z,135
2019-02-03T12:00:28.547Z,130
2019-02-03T12:01:28.668Z,135
2019-02-03T12:02:28.512Z,145
2019-02-03T12:03:28.500Z,135
2019-02-03T12:04:28.287Z,135
2019-02-03T12:05:28.243Z,145
2019-02-03T12:06:28.641Z,130
2019-02-03T12:07:28.921Z,140
2019-02-03T12:08:28.391Z,130
2019-02-03T12:09:29.841Z,130
2019-02-03T12:10:28.104Z,145
2019-02-03T12:11:28.114Z,140
2019-02-03T12:12:28.393Z,140
2019-02-03T12:13:27.796Z,145
2019-02-03T12:14:28.026Z,145
2019-02-03T12:15:29.064Z,150
2019-02-03T12:16:28.234Z,150
2019-02-03T12:17:28.216Z,140
2019-02-03T12:18:28.205Z,130
2019-02-03T12:19:28.184Z,130
2019-02-03T12:20:28.211Z,125
2019-02-03T12:21:30.142Z,125
2019-02-03T12:22:28.115Z,125
2019-02-03T12:23:28.895Z,125
2019-02-03T12:24:27.836Z,130
2019-02-03T12:25:27.875Z,130
2019-02-03T12:26:28.030Z,125
2019-02-03T12:27:27.776Z,125
2019-02-03T12:28:28.001Z,125
2019-02-03T12:29:31.079Z,130
2019-02-03T12:30:27.955Z,125
2019-02-03T12:31:29.702Z,125
2019-02-03T12:32:28.086Z,115
2019-02-03T12:33:31.052Z,130
2019-02-03T12:34:27.876Z,130
2019-02-03T12:35:28.732Z,125
2019-02-03T12:36:27.834Z,120
2019-02-03T12:37:27.827Z,120
2019-02-03T12:38:27.314Z,120
2019-02-03T12:39:28.152Z,120
2019-02-03T12:40:27.808Z,125
2019-02-03T12:41:27.738Z,115
2019-02-03T12:42:27.745Z,125
2019-02-03T12:43:27.691Z,115
2019-02-03T12:44:27.423Z,125
2019-02-03T12:45:27.675Z,115
2019-02-03T12:46:27.652Z,115
2019-02-03T12:47:28.889Z,120
2019-02-03T12:48:28.124Z,125
2019-02-03T12:49:27.587Z,120
2019-02-03T12:50:27.610Z,125
2019-02-03T12:51:27.552Z,115
2019-02-03T12:52:27.272Z,115
2019-02-03T12:53:27.502Z,110
2019-02-03T12:54:27.219Z,105
2019-02-03T12:55:27.827Z,120
2019-02-03T12:56:28.112Z,120
2019-02-03T12:57:27.417Z,110
2019-02-03T12:58:28.988Z,105
2019-02-03T12:59:27.386Z,105
2019-02-03T13:00:27.163Z,105
2019-02-03T13:01:27.376Z,105
2019-02-03T13:02:27.345Z,110
2019-02-03T13:03:30.172Z,105
2019-02-03T13:04:27.543Z,105
2019-02-03T13:05:27.265Z,100
2019-02-03T13:06:27.275Z,100
2019-02-03T13:07:27.350Z,100
2019-02-03T13:08:27.206Z,110
2019-02-03T13:09:27.191Z,110
2019-02-03T13:10:27.172Z,105
2019-02-03T13:11:27.600Z,105
2019-02-03T13:12:35.888Z,105
2019-02-03T13:13:26.854Z,105
2019-02-03T13:14:26.839Z,100
2019-02-03T13:15:26.566Z,105
2019-02-03T13:16:32.913Z,105
2019-02-03T13:17:28.404Z,110
2019-02-03T13:18:27.000Z,105
2019-02-03T13:19:26.807Z,110
2019-02-03T13:20:27.545Z,100
2019-02-03T13:21:26.941Z,105
2019-02-03T13:22:26.933Z,110
2019-02-03T13:23:26.661Z,105
2019-02-03T13:24:28.313Z,105
2019-02-03T13:25:26.665Z,105
2019-02-03T13:26:29.572Z,100
2019-02-03T13:27:26.929Z,100
2019-02-03T13:28:27.312Z,100
2019-02-03T13:29:26.783Z,100
2019-02-03T13:30:26.758Z,100
2019-02-03T13:31:26.744Z,95
2019-02-03T13:32:29.345Z,100
2019-02-03T13:33:29.054Z,95
2019-02-03T13:34:26.435Z,100
2019-02-03T13:35:26.661Z,95
2019-02-03T13:36:26.894Z,90
2019-02-03T13:37:26.358Z,85
2019-02-03T13:38:26.618Z,85
2019-02-03T13:39:26.584Z,80
2019-02-03T13:40:29.158Z,85
2019-02-03T13:41:26.538Z,85
2019-02-03T13:42:36.747Z,90
2019-02-03T13:43:26.252Z,80
2019-02-03T13:44:28.435Z,80
2019-02-03T13:45:31.224Z,80
2019-02-03T13:46:26.193Z,80
2019-02-03T13:47:26.169Z,85
2019-02-03T13:48:26.399Z,85
2019-02-03T13:49:26.379Z,85
2019-02-03T13:50:28.918Z,85
2019-02-03T13:51:26.092Z,85
2019-02-03T13:52:26.634Z,80
2019-02-03T13:53:26.704Z,85
2019-02-03T13:54:26.292Z,85
2019-02-03T13:55:26.269Z,90
2019-02-03T13:56:27.737Z,85
2019-02-03T13:57:26.224Z,85
2019-02-03T13:58:36.426Z,80
2019-02-03T13:59:25.934Z,85
2019-02-03T14:00:26.465Z,85
2019-02-03T14:01:26.802Z,85
2019-02-03T14:02:25.870Z,85
2019-02-03T14:03:26.093Z,85
2019-02-03T14:04:26.061Z,90
2019-02-03T14:05:26.085Z,85
2019-02-03T14:06:26.079Z,80
2019-02-03T14:07:25.760Z,80
2019-02-03T14:08:26.004Z,75
2019-02-03T14:09:26.638Z,80
2019-02-03T14:10:25.961Z,85
2019-02-03T14:11:25.947Z,80
2019-02-03T14:12:25.655Z,75
2019-02-03T14:13:25.893Z,80
2019-02-03T14:14:25.890Z,75
2019-02-03T14:15:25.868Z,75
2019-02-03T14:16:25.853Z,75
2019-02-03T14:17:26.344Z,75
2019-02-03T14:18:25.558Z,70
2019-02-03T14:19:25.768Z,70
2019-02-03T14:20:25.507Z,70
2019-02-03T14:21:25.785Z,70